sensor_id;sensor_type;location;lat;lon;timestamp;temperature;humidity
10388;DHT22;5240;51.128;4.566;2023-11-21T15:48:53;11.10;99.90
10388;DHT22;5240;51.128;4.566;2023-11-21T15:51:20;11.00;99.90
10388;DHT22;5240;51.128;4.566;2023-11-21T15:53:47;10.90;99.90
10388;DHT22;5240;51.128;4.566;2023-11-21T16:01:13;10.80;99.90
10388;DHT22;5240;51.128;4.566;2023-11-21T16:03:41;10.70;99.90
10388;DHT22;5240;51.128;4.566;2023-11-21T16:06:12;10.70;99.90
10388;DHT22;5240;51.128;4.566;2023-11-21T16:08:39;10.70;99.90
10388;DHT22;5240;51.128;4.566;2023-11-21T16:11:06;10.70;99.90
10388;DHT22;5240;51.128;4.566;2023-11-21T16:13:34;10.70;99.90
10388;DHT22;5240;51.128;4.566;2023-11-21T16:16:01;10.70;99.90
10388;DHT22;5240;51.128;4.566;2023-11-21T16:18:32;10.60;99.90
10388;DHT22;5240;51.128;4.566;2023-11-21T16:20:59;10.60;99.90
10388;DHT22;5240;51.128;4.566;2023-11-21T16:23:26;10.60;99.90
10388;DHT22;5240;51.128;4.566;2023-11-21T19:33:33;10.70;99.90
10388;DHT22;5240;51.128;4.566;2023-11-21T19:43:24;9.20;99.90
10388;DHT22;5240;51.128;4.566;2023-11-21T19:45:52;8.90;99.90
10388;DHT22;5240;51.128;4.566;2023-11-21T19:48:21;8.90;99.90
10388;DHT22;5240;51.128;4.566;2023-11-21T19:50:51;8.80;99.90
10388;DHT22;5240;51.128;4.566;2023-11-21T19:53:18;8.70;99.90
10388;DHT22;5240;51.128;4.566;2023-11-21T19:55:46;8.70;99.90
10388;DHT22;5240;51.128;4.566;2023-11-21T19:58:13;8.60;99.90
10388;DHT22;5240;51.128;4.566;2023-11-21T20:00:44;8.50;99.90
10388;DHT22;5240;51.128;4.566;2023-11-21T20:03:13;8.50;99.90
10388;DHT22;5240;51.128;4.566;2023-11-21T20:05:43;8.50;99.90
10388;DHT22;5240;51.128;4.566;2023-11-21T20:08:10;8.40;99.90
10388;DHT22;5240;51.128;4.566;2023-11-21T20:10:40;8.30;99.90
10388;DHT22;5240;51.128;4.566;2023-11-21T20:13:07;8.30;99.90
10388;DHT22;5240;51.128;4.566;2023-11-21T20:15:36;8.20;99.90
10388;DHT22;5240;51.128;4.566;2023-11-21T20:18:07;8.20;99.90
10388;DHT22;5240;51.128;4.566;2023-11-21T20:20:37;8.10;99.90
10388;DHT22;5240;51.128;4.566;2023-11-21T20:23:05;8.10;99.90
10388;DHT22;5240;51.128;4.566;2023-11-21T20:25:32;8.00;99.90
10388;DHT22;5240;51.128;4.566;2023-11-21T20:28:00;8.00;99.90
10388;DHT22;5240;51.128;4.566;2023-11-21T20:30:28;7.90;99.90
10388;DHT22;5240;51.128;4.566;2023-11-21T20:32:57;7.90;99.90
10388;DHT22;5240;51.128;4.566;2023-11-21T20:35:29;7.80;99.90
10388;DHT22;5240;51.128;4.566;2023-11-21T20:38:00;7.80;99.90
10388;DHT22;5240;51.128;4.566;2023-11-21T20:40:27;7.80;99.90
10388;DHT22;5240;51.128;4.566;2023-11-21T20:42:54;7.80;99.90
10388;DHT22;5240;51.128;4.566;2023-11-21T20:45:28;7.70;99.90
10388;DHT22;5240;51.128;4.566;2023-11-21T20:47:55;7.70;99.90
10388;DHT22;5240;51.128;4.566;2023-11-21T20:50:23;7.70;99.90
10388;DHT22;5240;51.128;4.566;2023-11-21T20:52:51;7.50;99.90
10388;DHT22;5240;51.128;4.566;2023-11-21T20:55:20;7.50;99.90
10388;DHT22;5240;51.128;4.566;2023-11-21T20:57:47;7.50;99.90
10388;DHT22;5240;51.128;4.566;2023-11-21T21:00:16;7.40;99.90
10388;DHT22;5240;51.128;4.566;2023-11-21T21:02:44;7.40;99.90
10388;DHT22;5240;51.128;4.566;2023-11-21T21:05:14;7.40;99.90
10388;DHT22;5240;51.128;4.566;2023-11-21T21:07:42;7.30;99.90
10388;DHT22;5240;51.128;4.566;2023-11-21T21:10:09;7.30;99.90
10388;DHT22;5240;51.128;4.566;2023-11-21T21:12:39;7.30;99.90
10388;DHT22;5240;51.128;4.566;2023-11-21T21:15:08;7.30;99.90
10388;DHT22;5240;51.128;4.566;2023-11-21T21:17:37;7.20;99.90
10388;DHT22;5240;51.128;4.566;2023-11-21T21:20:06;7.10;99.90
10388;DHT22;5240;51.128;4.566;2023-11-21T21:22:33;7.10;99.90
10388;DHT22;5240;51.128;4.566;2023-11-21T21:25:00;7.10;99.90
10388;DHT22;5240;51.128;4.566;2023-11-21T21:27:30;7.10;99.90
10388;DHT22;5240;51.128;4.566;2023-11-21T21:29:59;7.10;99.90
10388;DHT22;5240;51.128;4.566;2023-11-21T21:32:27;7.00;99.90
10388;DHT22;5240;51.128;4.566;2023-11-21T21:34:54;7.00;99.90
10388;DHT22;5240;51.128;4.566;2023-11-21T21:37:35;7.00;99.90
10388;DHT22;5240;51.128;4.566;2023-11-21T21:40:19;7.00;99.90
10388;DHT22;5240;51.128;4.566;2023-11-21T21:42:47;6.90;99.90
10388;DHT22;5240;51.128;4.566;2023-11-21T21:45:15;6.90;99.90
10388;DHT22;5240;51.128;4.566;2023-11-21T21:47:43;6.90;99.90
10388;DHT22;5240;51.128;4.566;2023-11-21T21:50:10;6.80;99.90
10388;DHT22;5240;51.128;4.566;2023-11-21T21:52:38;6.80;99.90
10388;DHT22;5240;51.128;4.566;2023-11-21T21:55:08;6.70;99.90
10388;DHT22;5240;51.128;4.566;2023-11-21T21:57:39;6.70;99.90
10388;DHT22;5240;51.128;4.566;2023-11-21T22:00:07;6.70;99.90
10388;DHT22;5240;51.128;4.566;2023-11-21T22:02:36;6.80;99.90
10388;DHT22;5240;51.128;4.566;2023-11-21T22:05:04;6.80;99.90
10388;DHT22;5240;51.128;4.566;2023-11-21T22:07:32;6.80;99.90
10388;DHT22;5240;51.128;4.566;2023-11-21T22:09:59;6.70;99.90
10388;DHT22;5240;51.128;4.566;2023-11-21T22:12:26;6.70;99.90
10388;DHT22;5240;51.128;4.566;2023-11-21T22:14:53;6.70;99.90
10388;DHT22;5240;51.128;4.566;2023-11-21T22:17:20;6.60;99.90
10388;DHT22;5240;51.128;4.566;2023-11-21T22:19:48;6.60;99.90
10388;DHT22;5240;51.128;4.566;2023-11-21T22:22:17;6.50;99.90
10388;DHT22;5240;51.128;4.566;2023-11-21T22:24:44;6.50;99.90
10388;DHT22;5240;51.128;4.566;2023-11-21T22:27:11;6.50;99.90
10388;DHT22;5240;51.128;4.566;2023-11-21T22:29:39;6.50;99.90
10388;DHT22;5240;51.128;4.566;2023-11-21T22:32:06;6.40;99.90
10388;DHT22;5240;51.128;4.566;2023-11-21T22:34:33;6.50;99.90
10388;DHT22;5240;51.128;4.566;2023-11-21T22:37:02;6.40;99.90
10388;DHT22;5240;51.128;4.566;2023-11-21T22:39:29;6.40;99.90
10388;DHT22;5240;51.128;4.566;2023-11-21T22:41:56;6.40;99.90
10388;DHT22;5240;51.128;4.566;2023-11-21T22:44:23;6.40;99.90
10388;DHT22;5240;51.128;4.566;2023-11-21T22:46:52;6.40;99.90
10388;DHT22;5240;51.128;4.566;2023-11-21T22:49:25;6.30;99.90
10388;DHT22;5240;51.128;4.566;2023-11-21T22:51:55;6.30;99.90
10388;DHT22;5240;51.128;4.566;2023-11-21T22:54:24;6.30;99.90
10388;DHT22;5240;51.128;4.566;2023-11-21T22:56:51;6.30;99.90
10388;DHT22;5240;51.128;4.566;2023-11-21T22:59:19;6.20;99.90
10388;DHT22;5240;51.128;4.566;2023-11-21T23:01:47;6.20;99.90
10388;DHT22;5240;51.128;4.566;2023-11-21T23:04:15;6.20;99.90
10388;DHT22;5240;51.128;4.566;2023-11-21T23:06:44;6.20;99.90
10388;DHT22;5240;51.128;4.566;2023-11-21T23:09:12;6.10;99.90
10388;DHT22;5240;51.128;4.566;2023-11-21T23:11:40;6.10;99.90
10388;DHT22;5240;51.128;4.566;2023-11-21T23:14:08;6.10;99.90
10388;DHT22;5240;51.128;4.566;2023-11-21T23:16:35;6.10;99.90
10388;DHT22;5240;51.128;4.566;2023-11-21T23:19:03;6.10;99.90
10388;DHT22;5240;51.128;4.566;2023-11-21T23:21:31;6.10;99.90
10388;DHT22;5240;51.128;4.566;2023-11-21T23:24:00;6.10;99.90
10388;DHT22;5240;51.128;4.566;2023-11-21T23:26:33;6.00;99.90
10388;DHT22;5240;51.128;4.566;2023-11-21T23:29:02;6.00;99.90
10388;DHT22;5240;51.128;4.566;2023-11-21T23:31:29;6.00;99.90
10388;DHT22;5240;51.128;4.566;2023-11-21T23:33:56;6.00;99.90
10388;DHT22;5240;51.128;4.566;2023-11-21T23:36:23;5.90;99.90
10388;DHT22;5240;51.128;4.566;2023-11-21T23:38:51;5.90;99.90
10388;DHT22;5240;51.128;4.566;2023-11-21T23:41:18;5.90;99.90
10388;DHT22;5240;51.128;4.566;2023-11-21T23:43:48;5.90;99.90
10388;DHT22;5240;51.128;4.566;2023-11-21T23:46:17;5.90;99.90
10388;DHT22;5240;51.128;4.566;2023-11-21T23:48:44;5.90;99.90
10388;DHT22;5240;51.128;4.566;2023-11-21T23:51:12;5.90;99.90
10388;DHT22;5240;51.128;4.566;2023-11-21T23:53:39;5.90;99.90
10388;DHT22;5240;51.128;4.566;2023-11-21T23:56:06;5.80;99.90
10388;DHT22;5240;51.128;4.566;2023-11-21T23:58:34;5.80;99.90
